PAHY

Hydaburg Seaplane Base

Airport
ICAO code
PAHY
IATA Code
HYG
Summary
ICAO Region
NAM
ICAO Territory
Location

, Alaska

Serving
Hydaburg
Coordinates
55° 12' 23" N , 132° 49' 42" W
Metar
PAHY 251556Z AUTO 00000KT 10SM FEW060 OVC075 12/10 A3010 RMK AO2 SLP190 T01170100 PNO $

Runways

Designator Length Width Surface Rops
E/W 1524 610 WATER No/No

Airport map

Aerial View

SKYbrary Partners:

Safety knowledge contributed by: